KCEU/CEU METAR and TAF weather

Enter ICAO airport designator
Station Type Date Time Source
KCEU METAR 2018/12/12 16:54 UTC NOAA

KCEU 121654Z AUTO 00000KT 10SM CLR 07/M01 A3020 RMK AO2 SLP229 T00671011


Station Type Date Time Source
KCEU Decoded METAR 2018/12/12 16:54 UTC NOAA

CLEMSON-OCONEE COUNTY AIRPORT , SC, United States (KCEU) 34-40N 082-53W 268M
Dec 12, 2018 - 11:54 AM EST / 2018.12.12 1654 UTC
Wind: Calm:0
Visibility: 10 mile(s):0
Sky conditions: clear
Temperature: 44.1 F (6.7 C)
Dew Point: 30.0 F (-1.1 C)
Relative Humidity: 57%
Pressure (altimeter): 30.2 in. Hg (1022 hPa)
ob: KCEU 121654Z AUTO 00000KT 10SM CLR 07/M01 A3020 RMK AO2 SLP229 T00671011
cycle: 17

Station Type Date Time Source
KCEU TAF UTC NOAA

Error!


Example: see airport list